Time;durP1;ratioP1;P1;durP2;ratioP2;P2;SDS_P1;SDS_P2;PMS_P1;PMS_P2;Temp;Humidity;BMP_temperature;BMP_pressure;BME280_temperature;BME280_humidity;BME280_pressure;Samples;Min_cycle;Max_cycle;Signal;HPM_P1;HPM_P2
2021/04/13 00:00:33;;;;;;;;;;;;;;;19.09;32.23;102968.25;2203914;39;113909;-58
2021/04/13 00:02:11;;;;;;;;;;;;;;;19.09;32.26;102967.41;2208743;39;114352;-56
2021/04/13 00:03:46;;;;;;;;;;;;;;;19.06;32.42;102967.91;2209390;39;113928;-57
2021/04/13 00:05:17;;;;;;;;;;;;;;;19.07;32.31;102969.63;2204530;39;114034;-57
2021/04/13 00:06:51;;;;;;;;;;;;;;;19.06;32.42;102967.91;2209913;39;113776;-57
2021/04/13 00:08:23;;;;;;;;;;;;;;;19.04;32.54;102973.75;2201126;39;114913;-57
2021/04/13 00:09:55;;;;;;;;;;;;;;;19.06;32.33;102973.50;2207882;39;114725;-60
2021/04/13 00:11:26;;;;;;;;;;;;;;;19.02;32.47;102973.16;2204218;39;114677;-59
2021/04/13 00:12:58;;;;;;;;;;;;;;;19.02;32.69;102969.50;2206872;39;115042;-60
2021/04/13 00:14:33;;;;;;;;;;;;;;;19.03;32.71;102969.25;2207035;39;114897;-57
2021/04/13 00:16:06;;;;;;;;;;;;;;;19.04;32.37;102973.75;2199300;39;114791;-58
2021/04/13 00:17:39;;;;;;;;;;;;;;;19.02;32.44;102973.16;2212879;39;114793;-58
2021/04/13 00:19:11;;;;;;;;;;;;;;;19.03;32.47;102977.66;2204275;39;114937;-60
2021/04/13 00:20:46;;;;;;;;;;;;;;;19.01;32.57;102971.47;2198164;39;114917;-59
2021/04/13 00:22:18;;;;;;;;;;;;;;;19.01;32.61;102976.22;2200814;39;114894;-57
2021/04/13 00:23:50;;;;;;;;;;;;;;;19.03;32.40;102974.84;2207977;39;114763;-57
2021/04/13 00:25:24;;;;;;;;;;;;;;;19.02;32.59;102970.38;2207683;39;115365;-57
2021/04/13 00:26:57;;;;;;;;;;;;;;;19.00;32.78;102974.50;2207914;39;115292;-56
2021/04/13 00:28:30;;;;;;;;;;;;;;;19.01;32.82;102968.66;2213328;39;115549;-56
2021/04/13 00:30:11;;;;;;;;;;;;;;;18.99;32.74;102976.44;2197537;39;115486;-56
2021/04/13 00:31:43;;;;;;;;;;;;;;;19.00;32.59;102975.34;2200993;39;115610;-56
2021/04/13 00:33:17;;;;;;;;;;;;;;;18.99;33.09;102973.63;2208894;39;115460;-58
2021/04/13 00:34:57;;;;;;;;;;;;;;;19.00;32.75;102972.56;2211238;39;115490;-57
2021/04/13 00:36:28;;;;;;;;;;;;;;;18.99;32.80;102968.03;2205083;39;116108;-58
2021/04/13 00:38:09;;;;;;;;;;;;;;;18.97;32.96;102970.25;2210810;39;115624;-59
2021/04/13 00:39:40;;;;;;;;;;;;;;;18.96;32.99;102976.09;2210237;39;114924;-55
2021/04/13 00:41:25;;;;;;;;;;;;;;;18.99;33.12;102978.38;2210544;39;114901;-58
2021/04/13 00:43:00;;;;;;;;;;;;;;;18.97;33.18;102975.84;2210998;39;114554;-59
2021/04/13 00:44:34;;;;;;;;;;;;;;;18.96;33.20;102973.28;2210170;39;115562;-59
2021/04/13 00:46:06;;;;;;;;;;;;;;;18.95;33.02;102978.03;2210002;39;115566;-57
2021/04/13 00:47:38;;;;;;;;;;;;;;;18.95;32.95;102978.03;2203674;39;115551;-58
2021/04/13 00:49:10;;;;;;;;;;;;;;;18.92;33.53;102977.69;2208988;39;115511;-58
2021/04/13 00:50:43;;;;;;;;;;;;;;;18.94;33.29;102975.50;2213636;39;115375;-59
2021/04/13 00:52:17;;;;;;;;;;;;;;;18.93;33.06;102982.19;2210585;39;114126;-57
2021/04/13 00:53:50;;;;;;;;;;;;;;;18.91;33.39;102971.25;2210396;39;113858;-58
2021/04/13 00:55:26;;;;;;;;;;;;;;;18.92;33.07;102975.75;2210214;39;113753;-57
2021/04/13 00:57:01;;;;;;;;;;;;;;;18.95;33.19;102983.66;2210566;39;113638;-57
2021/04/13 00:58:35;;;;;;;;;;;;;;;18.91;33.52;102982.44;2204295;39;114037;-58
2021/04/13 01:00:08;;;;;;;;;;;;;;;18.92;33.41;102980.50;2198017;39;113886;-58
2021/04/13 01:01:44;;;;;;;;;;;;;;;18.92;33.37;102974.91;2207737;39;113997;-58
2021/04/13 01:03:18;;;;;;;;;;;;;;;18.91;33.28;102984.38;2200880;39;113817;-57
2021/04/13 01:04:56;;;;;;;;;;;;;;;18.90;33.43;102982.69;2206783;39;113750;-57
2021/04/13 01:06:30;;;;;;;;;;;;;;;18.91;33.59;102981.59;2207157;39;113750;-58
2021/04/13 01:08:13;;;;;;;;;;;;;;;18.89;33.28;102975.41;2196900;39;114260;-57
2021/04/13 01:09:47;;;;;;;;;;;;;;;18.90;33.67;102980.72;2198126;39;114433;-56
2021/04/13 01:11:20;;;;;;;;;;;;;;;18.90;33.35;102983.53;2204599;39;113858;-57
2021/04/13 01:12:52;;;;;;;;;;;;;;;18.88;33.53;102977.34;2207825;39;113674;-57
2021/04/13 01:14:25;;;;;;;;;;;;;;;18.89;33.68;102984.66;2204903;39;113599;-57
2021/04/13 01:15:57;;;;;;;;;;;;;;;18.89;33.47;102979.06;2203631;39;116834;-59
2021/04/13 01:17:29;;;;;;;;;;;;;;;18.89;33.21;102975.41;2204376;39;115875;-58
2021/04/13 01:19:11;;;;;;;;;;;;;;;18.86;33.72;102979.53;2203511;39;114579;-57
2021/04/13 01:20:45;;;;;;;;;;;;;;;18.86;33.78;102981.47;2208920;39;114849;-56
2021/04/13 01:22:31;;;;;;;;;;;;;;;18.87;33.54;102984.03;2203452;39;114787;-58
2021/04/13 01:25:44;;;;;;;;;;;;;;;18.85;34.14;102989.03;2204061;39;115377;-57
2021/04/13 01:27:16;;;;;;;;;;;;;;;18.85;33.84;102991.81;2203618;39;115070;-56
2021/04/13 01:28:50;;;;;;;;;;;;;;;18.84;33.92;102984.53;2208156;39;114811;-57
2021/04/13 01:30:31;;;;;;;;;;;;;;;18.85;33.76;102991.00;2204086;39;115121;-57
2021/04/13 01:32:03;;;;;;;;;;;;;;;18.86;33.99;102989.88;2209067;39;115064;-59
2021/04/13 01:33:41;;;;;;;;;;;;;;;18.84;34.04;102986.50;2204548;39;115193;-57
2021/04/13 01:35:14;;;;;;;;;;;;;;;18.86;34.09;102990.72;2209959;39;114812;-61
2021/04/13 01:37:00;;;;;;;;;;;;;;;18.86;33.86;102987.06;2208057;39;114309;-58
2021/04/13 01:38:39;;;;;;;;;;;;;;;18.84;34.04;102984.53;2209929;39;115575;-56
2021/04/13 01:43:26;;;;;;;;;;;;;;;18.82;33.94;102985.88;2209311;39;115607;-56
2021/04/13 01:45:01;;;;;;;;;;;;;;;18.81;33.86;102985.03;2204561;39;115887;-58
2021/04/13 01:46:33;;;;;;;;;;;;;;;18.82;34.14;102983.94;2203866;39;115589;-56
2021/04/13 01:48:06;;;;;;;;;;;;;;;18.80;34.25;102986.16;2197312;39;115535;-58
2021/04/13 01:49:40;;;;;;;;;;;;;;;18.79;34.51;102987.22;2197832;39;115565;-59
2021/04/13 01:51:12;;;;;;;;;;;;;;;18.78;34.08;102985.53;2197762;39;115557;-58
2021/04/13 01:52:44;;;;;;;;;;;;;;;18.78;34.36;102985.53;2209176;39;114915;-56
2021/04/13 01:54:16;;;;;;;;;;;;;;;18.80;34.04;102988.94;2209419;39;115755;-57
2021/04/13 01:55:49;;;;;;;;;;;;;;;18.77;34.34;102980.16;2207885;39;115630;-57
2021/04/13 01:57:30;;;;;;;;;;;;;;;18.79;34.12;102989.19;2203742;39;115546;-60
2021/04/13 01:59:08;;;;;;;;;;;;;;;18.77;34.24;102992.22;2210170;39;115462;-60
2021/04/13 02:00:44;;;;;;;;;;;;;;;18.79;34.10;102989.19;2210975;39;114420;-57
2021/04/13 02:02:20;;;;;;;;;;;;;;;18.78;34.18;102990.28;2201488;39;114567;-60
2021/04/13 02:03:55;;;;;;;;;;;;;;;18.75;34.14;102994.44;2202878;39;113927;-59
2021/04/13 02:05:30;;;;;;;;;;;;;;;18.77;34.33;102991.34;2207040;39;113842;-59
2021/04/13 02:07:20;;;;;;;;;;;;;;;18.76;34.22;102996.09;2204991;39;114510;-58
2021/04/13 02:08:55;;;;;;;;;;;;;;;18.76;34.26;102993.31;2200311;39;114081;-60
2021/04/13 02:10:32;;;;;;;;;;;;;;;18.74;34.21;102989.91;2205869;39;114111;-59
2021/04/13 02:12:08;;;;;;;;;;;;;;;18.74;34.53;102991.88;2203438;39;113931;-58
2021/04/13 02:13:46;;;;;;;;;;;;;;;18.73;34.57;103002.22;2201261;39;113891;-58
2021/04/13 02:15:19;;;;;;;;;;;;;;;18.72;34.44;102997.69;2200467;39;113713;-58
2021/04/13 02:16:54;;;;;;;;;;;;;;;18.72;34.43;102988.44;2203441;39;113944;-57
2021/04/13 02:18:33;;;;;;;;;;;;;;;18.71;34.40;102993.22;2203212;39;113748;-57
2021/04/13 02:20:09;;;;;;;;;;;;;;;18.73;34.16;102987.34;2202073;39;114495;-59
2021/04/13 02:21:42;;;;;;;;;;;;;;;18.71;34.24;102989.56;2204740;39;113819;-59
2021/04/13 02:23:14;;;;;;;;;;;;;;;18.70;34.47;102985.91;2195403;39;115204;-56
2021/04/13 02:24:46;;;;;;;;;;;;;;;18.71;34.36;102979.22;2199095;39;115141;-59
2021/04/13 02:26:18;;;;;;;;;;;;;;;18.71;34.61;102989.56;2200341;39;114361;-57
2021/04/13 02:27:50;;;;;;;;;;;;;;;18.70;34.60;102985.06;2208295;39;114927;-60
2021/04/13 02:29:27;;;;;;;;;;;;;;;18.69;34.39;102983.34;2199876;39;114811;-58
2021/04/13 02:31:04;;;;;;;;;;;;;;;18.69;34.72;102987.00;2204338;39;114995;-58
2021/04/13 02:32:41;;;;;;;;;;;;;;;18.69;34.40;102978.59;2202413;39;115306;-59
2021/04/13 02:34:14;;;;;;;;;;;;;;;18.69;34.56;102987.00;2202895;39;114784;-59
2021/04/13 02:35:46;;;;;;;;;;;;;;;18.67;34.62;102991.97;2203858;39;114880;-57
2021/04/13 02:37:20;;;;;;;;;;;;;;;18.67;34.75;102987.25;2201959;39;114805;-58
2021/04/13 02:38:53;;;;;;;;;;;;;;;18.67;34.95;102990.03;2197073;39;115069;-59
2021/04/13 02:40:25;;;;;;;;;;;;;;;18.68;34.63;102996.50;2200206;39;114574;-59
2021/04/13 02:42:00;;;;;;;;;;;;;;;18.68;34.79;102996.50;2201939;39;115417;-59
2021/04/13 02:43:35;;;;;;;;;;;;;;;18.65;34.76;102994.19;2211139;39;114609;-59
2021/04/13 02:45:09;;;;;;;;;;;;;;;18.64;34.74;102992.47;2202789;39;115360;-57
2021/04/13 02:46:41;;;;;;;;;;;;;;;18.63;34.69;102990.78;2201995;39;115504;-59
2021/04/13 02:48:15;;;;;;;;;;;;;;;18.62;34.90;102989.09;2200993;39;115657;-59
2021/04/13 02:49:46;;;;;;;;;;;;;;;18.63;34.87;102988.84;2199480;39;115713;-59
2021/04/13 02:51:18;;;;;;;;;;;;;;;18.61;34.89;102993.84;2204539;39;115559;-59
2021/04/13 02:52:51;;;;;;;;;;;;;;;18.61;34.73;102990.19;2199855;39;115221;-57
2021/04/13 02:54:27;;;;;;;;;;;;;;;18.60;35.38;102991.28;2204177;39;115461;-60
2021/04/13 02:56:00;;;;;;;;;;;;;;;18.60;35.42;102997.72;2202356;39;115530;-58
2021/04/13 02:57:40;;;;;;;;;;;;;;;18.59;35.07;102995.16;2211170;39;115758;-59
2021/04/13 02:59:11;;;;;;;;;;;;;;;18.60;35.50;102997.72;2210711;39;116380;-58
2021/04/13 03:00:44;;;;;;;;;;;;;;;18.58;34.90;102994.31;2206772;39;114544;-57
2021/04/13 03:02:20;;;;;;;;;;;;;;;18.58;35.45;102997.13;2205611;39;115728;-59
2021/04/13 03:03:52;;;;;;;;;;;;;;;18.57;35.51;103003.84;2200800;39;114820;-59
2021/04/13 03:05:25;;;;;;;;;;;;;;;18.57;35.33;103005.78;2201194;39;116066;-61
2021/04/13 03:06:58;;;;;;;;;;;;;;;18.56;35.63;103007.72;2209392;39;115498;-59
2021/04/13 03:08:35;;;;;;;;;;;;;;;18.55;35.67;102999.56;2204726;39;113847;-59
2021/04/13 03:10:09;;;;;;;;;;;;;;;18.58;35.27;103002.72;2202627;39;113910;-58
2021/04/13 03:11:45;;;;;;;;;;;;;;;18.58;35.51;103001.84;2201825;39;114656;-58
2021/04/13 03:13:19;;;;;;;;;;;;;;;18.56;35.77;103004.91;2199439;39;113919;-58
2021/04/13 03:14:52;;;;;;;;;;;;;;;18.53;35.76;102997.00;2208307;39;114168;-59
2021/04/13 03:16:31;;;;;;;;;;;;;;;18.53;35.78;103002.59;2210339;39;113948;-58
2021/04/13 03:18:06;;;;;;;;;;;;;;;18.52;35.53;103003.69;2204113;39;114165;-59
2021/04/13 03:19:38;;;;;;;;;;;;;;;18.54;35.40;103000.66;2206240;39;113538;-59
2021/04/13 03:21:13;;;;;;;;;;;;;;;18.53;35.64;102997.00;2200720;39;113695;-59
2021/04/13 03:22:47;;;;;;;;;;;;;;;18.54;35.30;102997.84;2205832;39;113669;-60
2021/04/13 03:24:21;;;;;;;;;;;;;;;18.53;35.84;102998.97;2206458;39;114054;-57
2021/04/13 03:25:55;;;;;;;;;;;;;;;18.51;35.94;103001.13;2208253;39;113821;-57
2021/04/13 03:27:29;;;;;;;;;;;;;;;18.52;35.63;102994.44;2208242;39;113941;-58
2021/04/13 03:29:05;;;;;;;;;;;;;;;18.49;35.77;102990.16;2210019;39;114007;-57
2021/04/13 03:30:38;;;;;;;;;;;;;;;18.49;35.72;102995.75;2209243;39;114840;-56
2021/04/13 03:32:12;;;;;;;;;;;;;;;18.49;35.77;102992.09;2208971;39;114848;-58
2021/04/13 03:33:44;;;;;;;;;;;;;;;18.48;35.56;102999.66;2205928;39;114934;-59
2021/04/13 03:35:15;;;;;;;;;;;;;;;18.51;35.39;102998.31;2206530;39;115000;-56
2021/04/13 03:36:48;;;;;;;;;;;;;;;18.49;35.73;102994.91;2203406;39;115152;-59
2021/04/13 03:38:22;;;;;;;;;;;;;;;18.49;35.83;102992.94;2204824;39;113919;-57
2021/04/13 03:39:54;;;;;;;;;;;;;;;18.47;35.81;102994.31;2204376;39;114562;-59
2021/04/13 03:41:26;;;;;;;;;;;;;;;18.49;35.53;102987.34;2204704;39;115391;-58
2021/04/13 03:42:58;;;;;;;;;;;;;;;18.48;35.80;102988.47;2204303;39;114927;-59
2021/04/13 03:44:29;;;;;;;;;;;;;;;18.47;35.89;102988.72;2204421;39;115162;-59
2021/04/13 03:46:03;;;;;;;;;;;;;;;18.48;35.82;102993.22;2210684;39;115162;-57
2021/04/13 03:47:36;;;;;;;;;;;;;;;18.44;36.12;102992.81;2209960;39;114877;-57
2021/04/13 03:49:12;;;;;;;;;;;;;;;18.45;36.05;102994.53;2203890;39;114131;-56
2021/04/13 03:50:45;;;;;;;;;;;;;;;18.45;35.86;103002.06;2200677;39;114938;-58
2021/04/13 03:52:16;;;;;;;;;;;;;;;18.45;35.75;102997.34;2206241;39;115880;-60
2021/04/13 03:53:48;;;;;;;;;;;;;;;18.46;35.73;102998.19;2210950;39;114797;-58
2021/04/13 03:55:21;;;;;;;;;;;;;;;18.43;35.97;102995.91;2210350;39;115966;-59
2021/04/13 03:56:52;;;;;;;;;;;;;;;18.42;35.75;102994.19;2203332;39;115530;-57
2021/04/13 03:58:25;;;;;;;;;;;;;;;18.42;35.65;102996.97;2198031;39;116065;-57
2021/04/13 03:59:57;;;;;;;;;;;;;;;18.41;35.77;102998.94;2207326;39;115701;-59
2021/04/13 04:01:32;;;;;;;;;;;;;;;18.39;36.06;102997.47;2211457;39;115925;-59
2021/04/13 04:03:03;;;;;;;;;;;;;;;18.42;35.69;102994.19;2201796;39;115811;-57
2021/04/13 04:04:37;;;;;;;;;;;;;;;18.40;35.76;102997.22;2207393;39;115896;-57
2021/04/13 04:06:08;;;;;;;;;;;;;;;18.42;35.58;102994.19;2211561;39;115721;-58
2021/04/13 04:07:46;;;;;;;;;;;;;;;18.39;35.56;102991.88;2206022;39;115620;-58
2021/04/13 04:09:20;;;;;;;;;;;;;;;18.40;35.63;102994.41;2210204;39;115550;-58
2021/04/13 04:10:51;;;;;;;;;;;;;;;18.39;35.58;102998.34;2204556;39;116482;-57
2021/04/13 04:12:24;;;;;;;;;;;;;;;18.38;35.95;102990.19;2210657;39;115562;-58
2021/04/13 04:13:55;;;;;;;;;;;;;;;18.40;35.91;102999.16;2208309;39;113977;-59
2021/04/13 04:15:29;;;;;;;;;;;;;;;18.37;35.94;102997.72;2205039;39;113593;-58
2021/04/13 04:17:01;;;;;;;;;;;;;;;18.37;35.68;102996.84;2210784;39;113768;-60
2021/04/13 04:18:35;;;;;;;;;;;;;;;18.37;35.80;103000.50;2208988;39;113891;-59
2021/04/13 04:20:08;;;;;;;;;;;;;;;18.36;35.56;103004.41;2209731;39;114393;-60
2021/04/13 04:21:40;;;;;;;;;;;;;;;18.36;35.60;102998.81;2197954;39;113906;-59
2021/04/13 04:23:17;;;;;;;;;;;;;;;18.33;36.20;102998.44;2207246;39;114173;-58
2021/04/13 04:24:49;;;;;;;;;;;;;;;18.34;36.18;103005.75;2211241;39;113914;-57
2021/04/13 04:26:22;;;;;;;;;;;;;;;18.37;35.52;103003.31;2210101;39;113762;-57
2021/04/13 04:27:55;;;;;;;;;;;;;;;18.36;35.75;103006.34;2207992;39;113950;-57
2021/04/13 04:29:30;;;;;;;;;;;;;;;18.34;35.56;103016.94;2206265;39;113613;-59
2021/04/13 04:31:11;;;;;;;;;;;;;;;18.32;35.51;103011.59;2206312;39;113849;-56
2021/04/13 04:32:43;;;;;;;;;;;;;;;18.32;35.63;103000.38;2206169;39;113587;-57
2021/04/13 04:34:15;;;;;;;;;;;;;;;18.32;35.59;103007.94;2211063;39;114343;-57
2021/04/13 04:35:46;;;;;;;;;;;;;;;18.28;35.91;103006.72;2215546;39;113865;-58
2021/04/13 04:37:23;;;;;;;;;;;;;;;18.30;35.56;103005.41;2215162;39;115325;-58
2021/04/13 04:38:54;;;;;;;;;;;;;;;18.30;35.54;103005.41;2208406;39;115951;-58
2021/04/13 04:40:26;;;;;;;;;;;;;;;18.28;35.51;103001.97;2212729;39;114888;-56
2021/04/13 04:42:06;;;;;;;;;;;;;;;18.30;35.60;102997.00;2208291;39;114821;-57
2021/04/13 04:43:39;;;;;;;;;;;;;;;18.30;35.56;102997.00;2210113;39;115837;-60
2021/04/13 04:45:10;;;;;;;;;;;;;;;18.29;35.73;102998.09;2210870;39;114939;-60
2021/04/13 04:46:42;;;;;;;;;;;;;;;18.30;35.57;102994.19;2210940;39;114880;-57
2021/04/13 04:48:23;;;;;;;;;;;;;;;18.27;35.93;102994.66;2210702;39;115109;-57
2021/04/13 04:49:54;;;;;;;;;;;;;;;18.27;35.89;103002.19;2211699;39;115173;-60
2021/04/13 04:51:25;;;;;;;;;;;;;;;18.28;35.55;102996.38;2210855;39;114873;-57
2021/04/13 04:52:56;;;;;;;;;;;;;;;18.28;35.76;102987.13;2211786;39;114904;-59
2021/04/13 04:54:27;;;;;;;;;;;;;;;18.26;35.83;102992.13;2211438;39;114906;-59
2021/04/13 04:55:59;;;;;;;;;;;;;;;18.24;35.55;102995.16;2211110;39;114929;-58
2021/04/13 04:57:31;;;;;;;;;;;;;;;18.22;35.54;103006.59;2213336;39;114843;-59
2021/04/13 04:59:02;;;;;;;;;;;;;;;18.23;35.64;102999.91;2210744;39;115483;-59
2021/04/13 05:00:34;;;;;;;;;;;;;;;18.23;35.48;103002.69;2212496;39;115535;-58
2021/04/13 05:02:05;;;;;;;;;;;;;;;18.21;35.68;103004.88;2206418;39;116035;-58
2021/04/13 05:03:38;;;;;;;;;;;;;;;18.20;36.00;103000.41;2207653;39;115599;-59
2021/04/13 05:05:10;;;;;;;;;;;;;;;18.21;36.04;103004.88;2210817;39;115582;-59
2021/04/13 05:06:41;;;;;;;;;;;;;;;18.18;35.93;103002.56;2208348;39;115853;-60
2021/04/13 05:08:12;;;;;;;;;;;;;;;18.21;35.84;103004.88;2208318;39;115517;-60
2021/04/13 05:09:43;;;;;;;;;;;;;;;18.20;35.69;103000.41;2211363;39;116523;-57
2021/04/13 05:11:15;;;;;;;;;;;;;;;18.18;35.66;103004.53;2206179;39;115219;-57
2021/04/13 05:12:46;;;;;;;;;;;;;;;18.18;36.01;103001.72;2205573;39;115632;-59
2021/04/13 05:14:17;;;;;;;;;;;;;;;18.17;35.71;103009.25;2208444;39;116730;-59
2021/04/13 05:15:48;;;;;;;;;;;;;;;18.18;35.44;103010.97;2207781;39;115528;-58
2021/04/13 05:17:20;;;;;;;;;;;;;;;18.16;35.55;103004.78;2211432;39;115500;-58
2021/04/13 05:18:51;;;;;;;;;;;;;;;18.12;36.00;103011.97;2216433;39;115681;-59
2021/04/13 05:20:22;;;;;;;;;;;;;;;18.15;35.63;103011.47;2210263;39;113670;-56
2021/04/13 05:21:54;;;;;;;;;;;;;;;18.15;35.82;103016.19;2210699;39;113728;-59
2021/04/13 05:23:25;;;;;;;;;;;;;;;18.13;35.83;103013.63;2210725;39;113813;-60
2021/04/13 05:24:56;;;;;;;;;;;;;;;18.15;35.72;103016.19;2208084;39;113892;-57
2021/04/13 05:26:27;;;;;;;;;;;;;;;18.14;36.18;103014.50;2205375;39;113916;-60
2021/04/13 05:27:59;;;;;;;;;;;;;;;18.13;36.13;103013.63;2212759;39;113813;-58
2021/04/13 05:29:30;;;;;;;;;;;;;;;18.13;35.65;103016.44;2214915;39;114191;-57
2021/04/13 05:31:02;;;;;;;;;;;;;;;18.13;35.88;103019.22;2214184;39;113700;-58
2021/04/13 05:32:33;;;;;;;;;;;;;;;18.11;35.99;103018.63;2206595;39;113840;-58
2021/04/13 05:34:04;;;;;;;;;;;;;;;18.11;36.14;103020.59;2207423;39;114289;-59
2021/04/13 05:35:36;;;;;;;;;;;;;;;18.12;35.99;103020.34;2209777;39;113704;-59
2021/04/13 05:37:08;;;;;;;;;;;;;;;18.11;35.88;103015.00;2208654;39;114062;-59
2021/04/13 05:38:42;;;;;;;;;;;;;;;18.13;36.00;103021.16;2203286;39;113809;-60
2021/04/13 05:40:17;;;;;;;;;;;;;;;18.12;35.70;103020.34;2216987;39;114886;-59
2021/04/13 05:41:49;;;;;;;;;;;;;;;18.13;35.73;103018.38;2197938;39;114822;-57
2021/04/13 05:43:20;;;;;;;;;;;;;;;18.10;36.09;103022.53;2201232;39;114823;-57
2021/04/13 05:44:55;;;;;;;;;;;;;;;18.10;35.83;103016.94;2200135;39;114868;-60
2021/04/13 05:46:26;;;;;;;;;;;;;;;18.09;36.14;103023.59;2203977;39;114948;-59
2021/04/13 05:47:59;;;;;;;;;;;;;;;18.10;35.91;103021.66;2210135;39;114782;-60
2021/04/13 05:49:30;;;;;;;;;;;;;;;18.09;35.85;103025.56;2216531;39;114698;-57
2021/04/13 05:51:01;;;;;;;;;;;;;;;18.08;36.15;103030.28;2211218;39;114932;-57
2021/04/13 05:52:32;;;;;;;;;;;;;;;18.07;35.88;103030.56;2209002;39;114836;-59
2021/04/13 05:54:04;;;;;;;;;;;;;;;18.09;35.92;103029.19;2209522;39;114693;-58
2021/04/13 05:55:36;;;;;;;;;;;;;;;18.09;35.86;103029.19;2210840;39;113902;-59
2021/04/13 05:57:12;;;;;;;;;;;;;;;18.08;36.00;103027.50;2204654;39;114727;-58
2021/04/13 05:58:45;;;;;;;;;;;;;;;18.06;36.32;103029.69;2210284;39;114812;-57
2021/04/13 06:00:18;;;;;;;;;;;;;;;18.06;35.99;103031.63;2206150;39;115091;-59
2021/04/13 06:01:50;;;;;;;;;;;;;;;18.06;36.09;103029.69;2205806;39;114548;-58
2021/04/13 06:03:23;;;;;;;;;;;;;;;18.04;36.11;103034.66;2207876;39;115992;-59
2021/04/13 06:04:55;;;;;;;;;;;;;;;18.06;36.18;103046.47;2211997;39;115604;-57
2021/04/13 06:06:38;;;;;;;;;;;;;;;18.03;36.30;103046.13;2207067;39;115586;-58
2021/04/13 06:08:10;;;;;;;;;;;;;;;18.01;36.43;103046.34;2203012;39;115515;-59
2021/04/13 06:09:42;;;;;;;;;;;;;;;18.02;36.24;103048.06;2200421;39;115666;-59
2021/04/13 06:11:18;;;;;;;;;;;;;;;18.03;36.42;103046.13;2207687;39;115535;-59
2021/04/13 06:12:58;;;;;;;;;;;;;;;18.00;36.54;103049.38;2201127;39;115876;-57
2021/04/13 06:14:30;;;;;;;;;;;;;;;18.02;36.12;103056.44;2207612;39;115602;-57
2021/04/13 06:16:04;;;;;;;;;;;;;;;18.00;36.33;103058.63;2210016;39;115559;-56
2021/04/13 06:17:35;;;;;;;;;;;;;;;18.03;35.93;103058.16;2203096;39;115372;-57
2021/04/13 06:19:07;;;;;;;;;;;;;;;18.01;36.08;103059.47;2212811;39;115986;-60
2021/04/13 06:20:38;;;;;;;;;;;;;;;17.98;36.06;103069.22;2216205;39;115738;-56
2021/04/13 06:22:10;;;;;;;;;;;;;;;18.00;35.83;103057.75;2214189;39;115459;-57
2021/04/13 06:23:41;;;;;;;;;;;;;;;17.98;35.97;103065.56;2211894;39;115494;-56
2021/04/13 06:25:13;;;;;;;;;;;;;;;17.98;36.17;103069.22;2213929;39;115478;-59
2021/04/13 06:26:44;;;;;;;;;;;;;;;17.97;36.13;103056.31;2204246;39;113696;-56
2021/04/13 06:28:17;;;;;;;;;;;;;;;17.99;36.05;103062.50;2206101;39;113725;-60
2021/04/13 06:29:48;;;;;;;;;;;;;;;17.99;35.84;103068.09;2209422;39;113757;-59
2021/04/13 06:31:19;;;;;;;;;;;;;;;17.98;36.11;103065.56;2214314;39;113879;-58
2021/04/13 06:32:50;;;;;;;;;;;;;;;17.95;36.14;103064.06;2214766;39;113570;-58
2021/04/13 06:34:22;;;;;;;;;;;;;;;17.95;36.28;103063.22;2208798;39;114033;-57
2021/04/13 06:35:55;;;;;;;;;;;;;;;17.96;36.45;103065.78;2210208;39;114031;-60
2021/04/13 06:37:31;;;;;;;;;;;;;;;17.96;36.32;103063.00;2215408;39;113949;-56
2021/04/13 06:39:04;;;;;;;;;;;;;;;17.96;36.14;103056.53;2213037;39;113843;-59
2021/04/13 06:40:46;;;;;;;;;;;;;;;17.96;36.29;103071.38;2214846;39;114147;-59
2021/04/13 06:42:37;;;;;;;;;;;;;;;17.94;36.38;103068.00;2205936;39;113744;-58
2021/04/13 06:44:12;;;;;;;;;;;;;;;17.96;36.31;103068.59;2209931;39;113737;-57
2021/04/13 06:45:44;;;;;;;;;;;;;;;17.98;36.07;103068.34;2212953;39;113752;-57
2021/04/13 06:47:20;;;;;;;;;;;;;;;17.98;36.49;103069.22;2215199;39;113787;-60
2021/04/13 06:48:58;;;;;;;;;;;;;;;17.98;36.36;103069.22;2211256;39;114825;-58
2021/04/13 06:50:33;;;;;;;;;;;;;;;17.94;36.67;103070.78;2214908;39;114834;-58
2021/04/13 06:52:13;;;;;;;;;;;;;;;17.95;36.69;103066.88;2214373;39;114878;-57
2021/04/13 06:53:51;;;;;;;;;;;;;;;17.93;36.39;103071.00;2201332;39;113904;-59
2021/04/13 06:55:22;;;;;;;;;;;;;;;17.92;36.53;103072.94;2207569;39;114946;-58
2021/04/13 06:56:55;;;;;;;;;;;;;;;17.93;36.50;103069.06;2214985;39;114831;-59
2021/04/13 06:58:36;;;;;;;;;;;;;;;17.91;36.60;103073.19;2210988;39;115512;-58
2021/04/13 07:00:17;;;;;;;;;;;;;;;17.91;36.56;103076.84;2214990;39;113942;-60
2021/04/13 07:01:51;;;;;;;;;;;;;;;17.91;36.65;103075.97;2212524;39;114987;-57
2021/04/13 07:03:32;;;;;;;;;;;;;;;17.89;36.54;103081.84;2209621;39;114778;-57
2021/04/13 07:05:08;;;;;;;;;;;;;;;17.91;36.29;103081.56;2211538;39;115068;-59
2021/04/13 07:06:49;;;;;;;;;;;;;;;17.91;36.10;103082.44;2211709;39;114442;-58
2021/04/13 07:08:26;;;;;;;;;;;;;;;17.90;36.49;103083.50;2208751;39;114835;-59
2021/04/13 07:10:06;;;;;;;;;;;;;;;17.88;36.51;103077.31;2207207;39;114730;-59
2021/04/13 07:11:40;;;;;;;;;;;;;;;17.86;36.76;103085.09;2211023;39;115678;-59
2021/04/13 07:13:19;;;;;;;;;;;;;;;17.88;36.47;103082.91;2215278;39;115421;-57
2021/04/13 07:14:58;;;;;;;;;;;;;;;17.91;36.27;103087.16;2211857;39;116142;-59
2021/04/13 07:16:37;;;;;;;;;;;;;;;17.87;36.30;103078.41;2213104;39;115413;-58
2021/04/13 07:18:17;;;;;;;;;;;;;;;17.88;36.45;103082.06;2206908;39;115843;-58
2021/04/13 07:19:52;;;;;;;;;;;;;;;17.87;36.67;103081.22;2214755;39;114685;-59
2021/04/13 07:21:24;;;;;;;;;;;;;;;17.88;36.45;103077.31;2206804;39;115596;-56
2021/04/13 07:22:57;;;;;;;;;;;;;;;17.88;36.38;103077.31;2209657;39;115575;-57
2021/04/13 07:24:38;;;;;;;;;;;;;;;17.85;36.59;103079.75;2210611;39;115572;-57
2021/04/13 07:26:13;;;;;;;;;;;;;;;17.84;36.71;103083.63;2213046;39;115541;-56
2021/04/13 07:27:46;;;;;;;;;;;;;;;17.84;36.57;103089.22;2214214;39;115633;-59
2021/04/13 07:29:23;;;;;;;;;;;;;;;17.84;36.60;103087.28;2210378;39;115121;-57
2021/04/13 07:30:59;;;;;;;;;;;;;;;17.85;36.51;103096.53;2198743;39;116003;-59
2021/04/13 07:32:32;;;;;;;;;;;;;;;17.85;36.58;103096.53;2209227;39;116205;-58
2021/04/13 07:34:04;;;;;;;;;;;;;;;17.83;36.81;103093.97;2210331;39;114035;-58
2021/04/13 07:35:38;;;;;;;;;;;;;;;17.84;36.20;103090.06;2209602;39;113734;-59
2021/04/13 07:37:16;;;;;;;;;;;;;;;17.84;36.39;103092.88;2205346;39;114092;-59
2021/04/13 07:38:49;;;;;;;;;;;;;;;17.85;36.29;103088.13;2203672;39;114061;-58
2021/04/13 07:40:29;;;;;;;;;;;;;;;17.83;36.46;103091.16;2208291;39;114062;-58
2021/04/13 07:42:10;;;;;;;;;;;;;;;17.83;36.68;103091.16;2211950;39;114007;-59
2021/04/13 07:43:44;;;;;;;;;;;;;;;17.83;36.26;103087.50;2214614;39;113992;-60
2021/04/13 07:45:21;;;;;;;;;;;;;;;17.82;36.55;103088.59;2209073;39;113825;-58
2021/04/13 07:47:09;;;;;;;;;;;;;;;17.83;36.24;103088.38;2210461;39;114536;-58
2021/04/13 07:48:48;;;;;;;;;;;;;;;17.81;36.52;103090.53;2206133;39;113919;-58
2021/04/13 07:50:25;;;;;;;;;;;;;;;17.81;36.29;103089.72;2209881;39;113948;-59
2021/04/13 07:51:58;;;;;;;;;;;;;;;17.82;36.13;103083.00;2207071;39;114373;-57
2021/04/13 07:53:30;;;;;;;;;;;;;;;17.81;36.44;103087.75;2209237;39;114017;-56
2021/04/13 07:55:05;;;;;;;;;;;;;;;17.82;36.40;103088.59;2210035;39;114105;-58
2021/04/13 07:56:46;;;;;;;;;;;;;;;17.80;36.26;103085.19;2213711;39;114783;-57
2021/04/13 07:58:29;;;;;;;;;;;;;;;17.80;36.68;103086.06;2211571;39;113833;-59
2021/04/13 08:00:10;;;;;;;;;;;;;;;17.79;36.30;103081.53;2214753;39;114183;-57
2021/04/13 08:01:41;;;;;;;;;;;;;;;17.78;36.40;103075.09;2203604;39;114884;-58
2021/04/13 08:03:13;;;;;;;;;;;;;;;17.77;36.69;103076.19;2206681;39;114771;-55